CMP1408 MPTO-SKBG
Flight info
| Callsign | CMP1408 |
|---|---|
| Flight time | 1h 6m |
| Altitude | 35000 |
| Route | REMAL1A REMAL DCT KUBEK UP790 EJA EJA2C |
| Aircraft | A20N/M-SDE2E3FGHIRWXY/LB1 |
Departure
| Time | 2026-05-07 17:06 |
|---|---|
| Airport | Tocumen International Airport (MPTO) |
Arrival
| Time | 2026-05-07 18:13 |
|---|---|
| Airport | Palonegro Airport (SKBG) |
| Time | Latitude | Longitude | Altitude | Speed | Heading |
|---|---|---|---|---|---|
| 2026-05-07 16:39 | 9.06760 | -79.38490 | 46 ft | 0 kts | 328° |
| 2026-05-07 16:44 | 9.06758 | -79.38489 | 46 ft | 2 kts | 328° |
| 2026-05-07 16:44 | 9.06745 | -79.38479 | 44 ft | 2 kts | 316° |
| 2026-05-07 16:44 | 9.06734 | -79.38466 | 42 ft | 2 kts | 295° |
| 2026-05-07 16:45 | 9.06731 | -79.38451 | 43 ft | 2 kts | 258° |
| 2026-05-07 16:45 | 9.06737 | -79.38436 | 43 ft | 2 kts | 223° |
| 2026-05-07 16:45 | 9.06742 | -79.38432 | 44 ft | 0 kts | 212° |
| 2026-05-07 16:46 | 9.06724 | -79.38440 | 43 ft | 5 kts | 199° |
| 2026-05-07 16:46 | 9.06673 | -79.38460 | 45 ft | 10 kts | 207° |
| 2026-05-07 16:46 | 9.06602 | -79.38504 | 44 ft | 14 kts | 208° |
| 2026-05-07 16:46 | 9.06503 | -79.38558 | 44 ft | 18 kts | 209° |
| 2026-05-07 16:47 | 9.06387 | -79.38632 | 43 ft | 21 kts | 216° |
| 2026-05-07 16:47 | 9.06241 | -79.38694 | 41 ft | 24 kts | 210° |
| 2026-05-07 16:47 | 9.06086 | -79.38783 | 42 ft | 27 kts | 210° |
| 2026-05-07 16:47 | 9.05914 | -79.38881 | 41 ft | 30 kts | 209° |
| 2026-05-07 16:48 | 9.05727 | -79.38987 | 40 ft | 32 kts | 209° |
| 2026-05-07 16:48 | 9.05611 | -79.38987 | 39 ft | 12 kts | 128° |
| 2026-05-07 16:48 | 9.05565 | -79.38996 | 39 ft | 9 kts | 207° |
| 2026-05-07 16:48 | 9.05497 | -79.39029 | 39 ft | 13 kts | 208° |
| 2026-05-07 16:49 | 9.05408 | -79.39083 | 38 ft | 17 kts | 210° |
| 2026-05-07 16:49 | 9.05294 | -79.39148 | 38 ft | 21 kts | 208° |
| 2026-05-07 16:49 | 9.05159 | -79.39225 | 37 ft | 24 kts | 210° |
| 2026-05-07 16:49 | 9.05033 | -79.39297 | 37 ft | 0 kts | 208° |
| 2026-05-07 16:55 | 9.05013 | -79.39309 | 37 ft | 7 kts | 209° |
| 2026-05-07 16:55 | 9.04948 | -79.39346 | 36 ft | 14 kts | 210° |
| 2026-05-07 16:55 | 9.04915 | -79.39365 | 36 ft | 0 kts | 208° |
| 2026-05-07 16:56 | 9.04913 | -79.39366 | 36 ft | 2 kts | 208° |
| 2026-05-07 16:56 | 9.04862 | -79.39383 | 36 ft | 0 kts | 174° |
| 2026-05-07 16:58 | 9.04861 | -79.39383 | 36 ft | 1 kts | 174° |
| 2026-05-07 16:58 | 9.04842 | -79.39376 | 36 ft | 5 kts | 151° |
| 2026-05-07 16:58 | 9.04814 | -79.39339 | 37 ft | 8 kts | 119° |
| 2026-05-07 16:59 | 9.04800 | -79.39311 | 37 ft | 0 kts | 117° |
| 2026-05-07 17:00 | 9.04793 | -79.39299 | 36 ft | 6 kts | 118° |
| 2026-05-07 17:00 | 9.04798 | -79.39245 | 35 ft | 10 kts | 50° |
| 2026-05-07 17:00 | 9.04858 | -79.39207 | 37 ft | 0 kts | 29° |
| 2026-05-07 17:01 | 9.04896 | -79.39181 | 37 ft | 23 kts | 34° |
| 2026-05-07 17:01 | 9.04944 | -79.39139 | 38 ft | 1 kts | 51° |
| 2026-05-07 17:01 | 9.04960 | -79.39131 | 38 ft | 9 kts | 29° |
| 2026-05-07 17:02 | 9.05047 | -79.39052 | 38 ft | 0 kts | 46° |
| 2026-05-07 17:04 | 9.05062 | -79.39044 | 35 ft | 4 kts | 19° |
| 2026-05-07 17:04 | 9.05075 | -79.39042 | 37 ft | 1 kts | 7° |
| 2026-05-07 17:04 | 9.05094 | -79.39045 | 38 ft | 6 kts | 352° |
| 2026-05-07 17:04 | 9.05219 | -79.38999 | 38 ft | 39 kts | 31° |
| 2026-05-07 17:05 | 9.05548 | -79.38802 | 40 ft | 71 kts | 25° |
| 2026-05-07 17:05 | 9.06073 | -79.38512 | 43 ft | 99 kts | 30° |
| 2026-05-07 17:05 | 9.06721 | -79.38141 | 45 ft | 120 kts | 33° |
| 2026-05-07 17:05 | 9.07437 | -79.37615 | 146 ft | 130 kts | 51° |
| 2026-05-07 17:06 | 9.07885 | -79.36798 | 644 ft | 133 kts | 71° |
| 2026-05-07 17:06 | 9.08199 | -79.36029 | 1157 ft | 170 kts | 63° |
| 2026-05-07 17:06 | 9.08935 | -79.35128 | 1696 ft | 197 kts | 33° |
| 2026-05-07 17:07 | 9.10140 | -79.34337 | 2587 ft | 235 kts | 36° |
| 2026-05-07 17:07 | 9.11301 | -79.33011 | 3094 ft | 270 kts | 65° |
| 2026-05-07 17:07 | 9.11626 | -79.31970 | 3877 ft | 267 kts | 82° |
| 2026-05-07 17:07 | 9.11651 | -79.31749 | 4076 ft | 265 kts | 86° |
| 2026-05-07 17:08 | 9.11551 | -79.30393 | 5140 ft | 273 kts | 100° |
| 2026-05-07 17:08 | 9.10762 | -79.28476 | 5307 ft | 320 kts | 123° |
| 2026-05-07 17:08 | 9.09347 | -79.26566 | 5473 ft | 359 kts | 125° |
| 2026-05-07 17:08 | 9.08046 | -79.24326 | 6105 ft | 372 kts | 115° |
| 2026-05-07 17:09 | 9.07081 | -79.21887 | 7234 ft | 376 kts | 109° |
| 2026-05-07 17:09 | 9.06326 | -79.19323 | 8080 ft | 388 kts | 105° |
| 2026-05-07 17:09 | 9.05820 | -79.16626 | 8716 ft | 400 kts | 96° |
| 2026-05-07 17:09 | 9.05597 | -79.13834 | 9914 ft | 397 kts | 95° |
| 2026-05-07 17:10 | 9.05395 | -79.11100 | 10316 ft | 386 kts | 95° |
| 2026-05-07 17:10 | 9.05209 | -79.08303 | 10198 ft | 402 kts | 95° |
| 2026-05-07 17:10 | 9.05063 | -79.05546 | 10283 ft | 380 kts | 91° |
| 2026-05-07 17:10 | 9.05138 | -79.02930 | 10243 ft | 372 kts | 88° |
| 2026-05-07 17:11 | 9.05255 | -79.00319 | 10192 ft | 371 kts | 89° |
| 2026-05-07 17:11 | 9.05315 | -78.97705 | 10141 ft | 371 kts | 90° |
| 2026-05-07 17:11 | 9.05319 | -78.95093 | 10095 ft | 371 kts | 91° |
| 2026-05-07 17:11 | 9.05284 | -78.92521 | 10045 ft | 371 kts | 92° |
| 2026-05-07 17:12 | 9.05232 | -78.89914 | 9994 ft | 370 kts | 92° |
| 2026-05-07 17:12 | 9.05174 | -78.87314 | 9944 ft | 370 kts | 92° |
| 2026-05-07 17:12 | 9.05027 | -78.84722 | 9890 ft | 369 kts | 98° |
| 2026-05-07 17:12 | 9.04424 | -78.82206 | 9842 ft | 368 kts | 110° |
| 2026-05-07 17:13 | 9.03347 | -78.79870 | 9797 ft | 368 kts | 121° |
| 2026-05-07 17:13 | 9.01957 | -78.77696 | 9748 ft | 367 kts | 123° |
| 2026-05-07 17:13 | 9.00606 | -78.75585 | 9698 ft | 368 kts | 122° |
| 2026-05-07 17:13 | 8.99228 | -78.73414 | 9649 ft | 366 kts | 122° |
| 2026-05-07 17:14 | 8.97873 | -78.71275 | 9590 ft | 367 kts | 122° |
| 2026-05-07 17:14 | 8.96487 | -78.69093 | 9548 ft | 367 kts | 122° |
| 2026-05-07 17:14 | 8.95107 | -78.66915 | 9500 ft | 369 kts | 122° |
| 2026-05-07 17:14 | 8.93715 | -78.64716 | 9448 ft | 373 kts | 122° |
| 2026-05-07 17:15 | 8.92318 | -78.62514 | 9397 ft | 371 kts | 122° |
| 2026-05-07 17:15 | 8.90929 | -78.60327 | 9349 ft | 367 kts | 122° |
| 2026-05-07 17:15 | 8.89559 | -78.58168 | 9300 ft | 365 kts | 122° |
| 2026-05-07 17:15 | 8.88175 | -78.55990 | 9249 ft | 371 kts | 122° |
| 2026-05-07 17:16 | 8.86784 | -78.53801 | 9200 ft | 367 kts | 122° |
| 2026-05-07 17:16 | 8.85432 | -78.51673 | 9149 ft | 364 kts | 122° |
| 2026-05-07 17:16 | 8.84060 | -78.49512 | 9090 ft | 367 kts | 122° |
| 2026-05-07 17:16 | 8.82990 | -78.47830 | 9064 ft | 372 kts | 122° |
| 2026-05-07 17:17 | 8.81648 | -78.45718 | 9517 ft | 380 kts | 122° |
| 2026-05-07 17:17 | 8.80225 | -78.43478 | 10617 ft | 375 kts | 122° |
| 2026-05-07 17:18 | 8.78826 | -78.41272 | 11784 ft | 372 kts | 123° |
| 2026-05-07 17:18 | 8.77418 | -78.39052 | 12617 ft | 378 kts | 123° |
| 2026-05-07 17:18 | 8.76007 | -78.36831 | 13380 ft | 384 kts | 123° |
| 2026-05-07 17:18 | 8.74556 | -78.34547 | 14210 ft | 388 kts | 123° |
| 2026-05-07 17:19 | 8.73087 | -78.32237 | 15002 ft | 393 kts | 124° |
| 2026-05-07 17:19 | 8.71600 | -78.29899 | 15709 ft | 399 kts | 124° |
| 2026-05-07 17:19 | 8.70094 | -78.27532 | 16433 ft | 403 kts | 124° |
| 2026-05-07 17:19 | 8.68575 | -78.25142 | 17171 ft | 407 kts | 124° |
| 2026-05-07 17:20 | 8.67035 | -78.22721 | 17825 ft | 412 kts | 125° |
| 2026-05-07 17:20 | 8.65474 | -78.20271 | 18447 ft | 418 kts | 125° |
| 2026-05-07 17:20 | 8.63894 | -78.17789 | 19060 ft | 422 kts | 125° |
| 2026-05-07 17:20 | 8.62318 | -78.15314 | 19685 ft | 427 kts | 126° |
| 2026-05-07 17:21 | 8.60704 | -78.12779 | 20272 ft | 432 kts | 126° |
| 2026-05-07 17:21 | 8.59070 | -78.10215 | 20826 ft | 437 kts | 126° |
| 2026-05-07 17:21 | 8.57414 | -78.07617 | 21394 ft | 442 kts | 126° |
| 2026-05-07 17:21 | 8.55741 | -78.04992 | 21917 ft | 444 kts | 126° |
| 2026-05-07 17:22 | 8.53213 | -78.01019 | 23606 ft | 425 kts | 126° |
| 2026-05-07 17:22 | 8.50028 | -77.96025 | 25158 ft | 426 kts | 127° |
| 2026-05-07 17:22 | 8.46770 | -77.90932 | 26164 ft | 437 kts | 127° |
| 2026-05-07 17:22 | 8.43439 | -77.85718 | 27118 ft | 447 kts | 127° |
| 2026-05-07 17:23 | 8.40028 | -77.80376 | 27985 ft | 457 kts | 127° |
| 2026-05-07 17:23 | 8.37729 | -77.76778 | 28539 ft | 463 kts | 127° |
| 2026-05-07 17:23 | 8.35979 | -77.74038 | 28932 ft | 467 kts | 126° |
| 2026-05-07 17:23 | 8.34210 | -77.71270 | 29308 ft | 471 kts | 126° |
| 2026-05-07 17:24 | 8.32425 | -77.68479 | 29682 ft | 475 kts | 126° |
| 2026-05-07 17:24 | 8.30625 | -77.65663 | 30036 ft | 479 kts | 126° |
| 2026-05-07 17:24 | 8.28806 | -77.62821 | 30380 ft | 483 kts | 126° |
| 2026-05-07 17:24 | 8.26981 | -77.59969 | 30728 ft | 487 kts | 126° |
| 2026-05-07 17:25 | 8.25132 | -77.57081 | 31096 ft | 491 kts | 126° |
| 2026-05-07 17:25 | 8.23296 | -77.54212 | 31430 ft | 495 kts | 126° |
| 2026-05-07 17:25 | 8.21424 | -77.51290 | 31813 ft | 497 kts | 126° |
| 2026-05-07 17:25 | 8.19550 | -77.48360 | 32281 ft | 497 kts | 126° |
| 2026-05-07 17:26 | 8.17107 | -77.44540 | 32827 ft | 497 kts | 126° |
| 2026-05-07 17:26 | 8.13349 | -77.38681 | 33611 ft | 498 kts | 126° |
| 2026-05-07 17:26 | 8.09624 | -77.32865 | 34419 ft | 494 kts | 126° |
| 2026-05-07 17:26 | 8.05853 | -77.26989 | 34933 ft | 498 kts | 126° |
| 2026-05-07 17:27 | 8.02520 | -77.20891 | 35274 ft | 499 kts | 115° |
| 2026-05-07 17:27 | 8.00359 | -77.14226 | 35424 ft | 498 kts | 107° |
| 2026-05-07 17:27 | 7.96536 | -77.00926 | 35428 ft | 497 kts | 107° |
| 2026-05-07 17:28 | 7.93563 | -76.90614 | 35428 ft | 497 kts | 107° |
| 2026-05-07 17:28 | 7.91631 | -76.83918 | 35428 ft | 497 kts | 107° |
| 2026-05-07 17:29 | 7.89699 | -76.77223 | 35427 ft | 497 kts | 107° |
| 2026-05-07 17:29 | 7.87780 | -76.70580 | 35428 ft | 497 kts | 107° |
| 2026-05-07 17:30 | 7.85844 | -76.63883 | 35427 ft | 497 kts | 107° |
| 2026-05-07 17:30 | 7.84880 | -76.60548 | 35231 ft | 495 kts | 107° |
| 2026-05-07 17:30 | 7.83914 | -76.57209 | 34595 ft | 496 kts | 107° |
| 2026-05-07 17:31 | 7.82944 | -76.53856 | 33691 ft | 500 kts | 108° |
| 2026-05-07 17:31 | 7.81973 | -76.50489 | 33011 ft | 498 kts | 108° |
| 2026-05-07 17:31 | 7.81009 | -76.47149 | 32502 ft | 494 kts | 109° |
| 2026-05-07 17:31 | 7.80049 | -76.43835 | 32089 ft | 492 kts | 108° |
| 2026-05-07 17:32 | 7.79101 | -76.40563 | 31922 ft | 494 kts | 108° |
| 2026-05-07 17:32 | 7.78129 | -76.37214 | 32038 ft | 502 kts | 108° |
| 2026-05-07 17:32 | 7.77147 | -76.33830 | 32407 ft | 504 kts | 108° |
| 2026-05-07 17:32 | 7.76494 | -76.31580 | 32705 ft | 504 kts | 108° |
| 2026-05-07 17:33 | 7.75184 | -76.27060 | 33311 ft | 503 kts | 108° |
| 2026-05-07 17:33 | 7.74197 | -76.23661 | 33704 ft | 504 kts | 108° |
| 2026-05-07 17:33 | 7.73212 | -76.20272 | 34124 ft | 504 kts | 107° |
| 2026-05-07 17:33 | 7.72229 | -76.16887 | 34556 ft | 503 kts | 107° |
| 2026-05-07 17:34 | 7.71247 | -76.13506 | 34976 ft | 502 kts | 107° |
| 2026-05-07 17:34 | 7.70281 | -76.10179 | 35372 ft | 501 kts | 107° |
| 2026-05-07 17:34 | 7.69302 | -76.06814 | 35727 ft | 501 kts | 107° |
| 2026-05-07 17:34 | 7.68325 | -76.03453 | 36115 ft | 499 kts | 107° |
| 2026-05-07 17:35 | 7.67348 | -76.00094 | 36477 ft | 499 kts | 108° |
| 2026-05-07 17:35 | 7.66372 | -75.96739 | 36758 ft | 500 kts | 107° |
| 2026-05-07 17:35 | 7.65391 | -75.93367 | 36984 ft | 501 kts | 107° |
| 2026-05-07 17:35 | 7.64414 | -75.90009 | 37211 ft | 498 kts | 107° |
| 2026-05-07 17:36 | 7.63440 | -75.86664 | 37324 ft | 497 kts | 107° |
| 2026-05-07 17:36 | 7.62462 | -75.83310 | 37410 ft | 499 kts | 108° |
| 2026-05-07 17:36 | 7.60516 | -75.76632 | 37429 ft | 504 kts | 108° |
| 2026-05-07 17:37 | 7.58535 | -75.69843 | 37429 ft | 504 kts | 108° |
| 2026-05-07 17:37 | 7.56571 | -75.63107 | 37427 ft | 499 kts | 108° |
| 2026-05-07 17:38 | 7.55595 | -75.59762 | 37151 ft | 497 kts | 108° |
| 2026-05-07 17:38 | 7.54623 | -75.56432 | 36544 ft | 496 kts | 108° |
| 2026-05-07 17:38 | 7.53644 | -75.53083 | 35716 ft | 499 kts | 108° |
| 2026-05-07 17:38 | 7.52671 | -75.49754 | 34752 ft | 504 kts | 108° |
| 2026-05-07 17:39 | 7.51676 | -75.46351 | 33861 ft | 507 kts | 108° |
| 2026-05-07 17:39 | 7.50684 | -75.42946 | 33041 ft | 506 kts | 108° |
| 2026-05-07 17:39 | 7.49692 | -75.39551 | 32212 ft | 505 kts | 108° |
| 2026-05-07 17:39 | 7.48699 | -75.36156 | 31320 ft | 505 kts | 109° |
| 2026-05-07 17:40 | 7.47710 | -75.32771 | 30602 ft | 501 kts | 109° |
| 2026-05-07 17:40 | 7.46784 | -75.29601 | 30575 ft | 481 kts | 109° |
| 2026-05-07 17:40 | 7.45865 | -75.26445 | 30869 ft | 458 kts | 109° |
| 2026-05-07 17:40 | 7.44989 | -75.23441 | 31387 ft | 436 kts | 109° |
| 2026-05-07 17:41 | 7.44157 | -75.20602 | 31956 ft | 429 kts | 109° |
| 2026-05-07 17:41 | 7.43303 | -75.17698 | 32185 ft | 435 kts | 109° |
| 2026-05-07 17:41 | 7.42435 | -75.14755 | 32341 ft | 443 kts | 109° |
| 2026-05-07 17:41 | 7.41545 | -75.11739 | 32426 ft | 455 kts | 109° |
| 2026-05-07 17:42 | 7.40636 | -75.08646 | 32429 ft | 467 kts | 109° |
| 2026-05-07 17:42 | 7.39701 | -75.05465 | 32426 ft | 480 kts | 109° |
| 2026-05-07 17:42 | 7.38742 | -75.02201 | 32428 ft | 492 kts | 108° |
| 2026-05-07 17:42 | 7.37764 | -74.98868 | 32429 ft | 500 kts | 108° |
| 2026-05-07 17:43 | 7.36794 | -74.95553 | 32425 ft | 484 kts | 108° |
| 2026-05-07 17:43 | 7.35861 | -74.92362 | 32426 ft | 466 kts | 108° |
| 2026-05-07 17:43 | 7.34974 | -74.89335 | 32425 ft | 449 kts | 108° |
| 2026-05-07 17:43 | 7.34107 | -74.86377 | 32426 ft | 432 kts | 109° |
| 2026-05-07 17:44 | 7.33271 | -74.83533 | 32425 ft | 416 kts | 109° |
| 2026-05-07 17:44 | 7.32466 | -74.80791 | 32426 ft | 400 kts | 109° |
| 2026-05-07 17:44 | 7.31693 | -74.78161 | 32424 ft | 384 kts | 109° |
| 2026-05-07 17:44 | 7.30950 | -74.75635 | 32426 ft | 367 kts | 109° |
| 2026-05-07 17:45 | 7.30168 | -74.73240 | 32418 ft | 354 kts | 120° |
| 2026-05-07 17:45 | 7.28794 | -74.71180 | 32095 ft | 359 kts | 139° |
| 2026-05-07 17:45 | 7.26908 | -74.69502 | 31347 ft | 365 kts | 140° |
| 2026-05-07 17:45 | 7.25483 | -74.67476 | 31418 ft | 354 kts | 116° |
| 2026-05-07 17:46 | 7.24834 | -74.65102 | 31192 ft | 358 kts | 97° |
| 2026-05-07 17:46 | 7.24958 | -74.62509 | 30026 ft | 391 kts | 78° |
| 2026-05-07 17:46 | 7.25987 | -74.59771 | 28409 ft | 448 kts | 60° |
| 2026-05-07 17:46 | 7.27943 | -74.57157 | 27602 ft | 486 kts | 46° |
| 2026-05-07 17:47 | 7.30577 | -74.54935 | 27584 ft | 498 kts | 32° |
| 2026-05-07 17:47 | 7.33622 | -74.53337 | 28340 ft | 487 kts | 19° |
| 2026-05-07 17:47 | 7.36806 | -74.52453 | 29592 ft | 463 kts | 5° |
| 2026-05-07 17:47 | 7.39902 | -74.51967 | 30763 ft | 437 kts | 10° |
| 2026-05-07 17:48 | 7.42654 | -74.50932 | 31481 ft | 416 kts | 26° |
| 2026-05-07 17:48 | 7.44966 | -74.49241 | 32030 ft | 419 kts | 43° |
| 2026-05-07 17:48 | 7.46762 | -74.46935 | 32535 ft | 421 kts | 59° |
| 2026-05-07 17:48 | 7.47908 | -74.44220 | 32558 ft | 423 kts | 76° |
| 2026-05-07 17:49 | 7.48350 | -74.41304 | 32331 ft | 421 kts | 88° |
| 2026-05-07 17:49 | 7.48341 | -74.38361 | 31865 ft | 420 kts | 97° |
| 2026-05-07 17:49 | 7.47939 | -74.35444 | 31566 ft | 426 kts | 106° |
| 2026-05-07 17:49 | 7.47078 | -74.32546 | 31450 ft | 436 kts | 116° |
| 2026-05-07 17:50 | 7.45716 | -74.29831 | 31348 ft | 433 kts | 127° |
| 2026-05-07 17:50 | 7.43901 | -74.27454 | 31084 ft | 425 kts | 136° |
| 2026-05-07 17:50 | 7.41972 | -74.25259 | 30576 ft | 424 kts | 136° |
| 2026-05-07 17:50 | 7.40028 | -74.23037 | 30036 ft | 421 kts | 136° |
| 2026-05-07 17:51 | 7.38118 | -74.20847 | 29783 ft | 410 kts | 136° |
| 2026-05-07 17:51 | 7.36267 | -74.18723 | 29653 ft | 396 kts | 136° |
| 2026-05-07 17:51 | 7.34465 | -74.16659 | 29269 ft | 391 kts | 136° |
| 2026-05-07 17:51 | 7.32655 | -74.14592 | 28433 ft | 398 kts | 136° |
| 2026-05-07 17:52 | 7.30807 | -74.12487 | 27561 ft | 404 kts | 136° |
| 2026-05-07 17:52 | 7.28930 | -74.10349 | 26674 ft | 409 kts | 136° |
| 2026-05-07 17:52 | 7.27034 | -74.08185 | 25763 ft | 415 kts | 135° |
| 2026-05-07 17:52 | 7.25119 | -74.05995 | 24935 ft | 417 kts | 135° |
| 2026-05-07 17:53 | 7.23244 | -74.03849 | 24580 ft | 412 kts | 135° |
| 2026-05-07 17:53 | 7.21346 | -74.01677 | 24451 ft | 415 kts | 135° |
| 2026-05-07 17:53 | 7.19438 | -73.99497 | 24427 ft | 415 kts | 135° |
| 2026-05-07 17:53 | 7.17530 | -73.97317 | 24427 ft | 415 kts | 135° |
| 2026-05-07 17:54 | 7.15618 | -73.95133 | 24427 ft | 415 kts | 135° |
| 2026-05-07 17:54 | 7.13709 | -73.92953 | 24427 ft | 415 kts | 135° |
| 2026-05-07 17:54 | 7.11798 | -73.90770 | 24428 ft | 415 kts | 135° |
| 2026-05-07 17:54 | 7.09891 | -73.88593 | 24427 ft | 415 kts | 135° |
| 2026-05-07 17:55 | 7.07980 | -73.86411 | 24428 ft | 415 kts | 135° |
| 2026-05-07 17:55 | 7.06096 | -73.84260 | 24428 ft | 415 kts | 135° |
| 2026-05-07 17:55 | 7.04296 | -73.81982 | 24427 ft | 419 kts | 127° |
| 2026-05-07 17:55 | 7.02912 | -73.79384 | 24431 ft | 425 kts | 116° |
| 2026-05-07 17:56 | 7.02022 | -73.76531 | 24428 ft | 430 kts | 105° |
| 2026-05-07 17:56 | 7.01441 | -73.73575 | 24427 ft | 431 kts | 105° |
| 2026-05-07 17:56 | 7.00853 | -73.70618 | 24427 ft | 430 kts | 105° |
| 2026-05-07 17:56 | 7.00259 | -73.67668 | 24415 ft | 430 kts | 105° |
| 2026-05-07 17:57 | 6.99666 | -73.64734 | 24178 ft | 426 kts | 105° |
| 2026-05-07 17:57 | 6.99276 | -73.62804 | 23893 ft | 424 kts | 105° |
| 2026-05-07 17:57 | 6.98520 | -73.59073 | 22928 ft | 424 kts | 105° |
| 2026-05-07 17:57 | 6.97926 | -73.56154 | 21933 ft | 428 kts | 105° |
| 2026-05-07 17:58 | 6.97327 | -73.53207 | 20852 ft | 432 kts | 105° |
| 2026-05-07 17:58 | 6.96722 | -73.50234 | 19669 ft | 435 kts | 104° |
| 2026-05-07 17:58 | 6.96112 | -73.47233 | 18510 ft | 437 kts | 104° |
| 2026-05-07 17:58 | 6.95505 | -73.44250 | 17612 ft | 432 kts | 103° |
| 2026-05-07 17:59 | 6.94911 | -73.41313 | 16836 ft | 424 kts | 104° |
| 2026-05-07 17:59 | 6.94327 | -73.38432 | 15963 ft | 417 kts | 103° |
| 2026-05-07 17:59 | 6.93754 | -73.35621 | 15035 ft | 413 kts | 103° |
| 2026-05-07 17:59 | 6.92908 | -73.32900 | 14184 ft | 404 kts | 114° |
| 2026-05-07 18:00 | 6.91532 | -73.30441 | 12879 ft | 404 kts | 125° |
| 2026-05-07 18:00 | 6.89619 | -73.28351 | 11547 ft | 408 kts | 139° |
| 2026-05-07 18:00 | 6.87320 | -73.26751 | 10568 ft | 400 kts | 151° |
| 2026-05-07 18:00 | 6.84793 | -73.25682 | 9665 ft | 391 kts | 162° |
| 2026-05-07 18:01 | 6.82232 | -73.24843 | 8936 ft | 380 kts | 157° |
| 2026-05-07 18:01 | 6.79924 | -73.23708 | 8568 ft | 359 kts | 148° |
| 2026-05-07 18:01 | 6.77931 | -73.22339 | 8414 ft | 335 kts | 140° |
| 2026-05-07 18:01 | 6.76298 | -73.20845 | 8352 ft | 308 kts | 133° |
| 2026-05-07 18:02 | 6.73942 | -73.17707 | 8351 ft | 257 kts | 119° |
| 2026-05-07 18:02 | 6.73156 | -73.16183 | 8347 ft | 234 kts | 114° |
| 2026-05-07 18:02 | 6.72569 | -73.14709 | 8341 ft | 225 kts | 108° |
| 2026-05-07 18:03 | 6.72126 | -73.13211 | 8360 ft | 220 kts | 103° |
| 2026-05-07 18:03 | 6.71833 | -73.11719 | 8348 ft | 214 kts | 98° |
| 2026-05-07 18:03 | 6.71681 | -73.10235 | 8360 ft | 214 kts | 93° |
| 2026-05-07 18:03 | 6.71655 | -73.08741 | 8351 ft | 216 kts | 88° |
| 2026-05-07 18:04 | 6.71765 | -73.07227 | 8361 ft | 218 kts | 82° |
| 2026-05-07 18:04 | 6.72288 | -73.05808 | 8357 ft | 220 kts | 56° |
| 2026-05-07 18:04 | 6.73496 | -73.04903 | 8358 ft | 224 kts | 15° |
| 2026-05-07 18:04 | 6.75044 | -73.04967 | 8346 ft | 220 kts | 346° |
| 2026-05-07 18:05 | 6.76460 | -73.05430 | 8355 ft | 210 kts | 343° |
| 2026-05-07 18:05 | 6.77842 | -73.05900 | 8350 ft | 208 kts | 343° |
| 2026-05-07 18:05 | 6.79212 | -73.06363 | 8351 ft | 207 kts | 343° |
| 2026-05-07 18:05 | 6.80583 | -73.06823 | 8349 ft | 208 kts | 343° |
| 2026-05-07 18:06 | 6.81942 | -73.07278 | 8351 ft | 208 kts | 343° |
| 2026-05-07 18:06 | 6.83315 | -73.07738 | 8350 ft | 208 kts | 343° |
| 2026-05-07 18:06 | 6.84691 | -73.08197 | 8354 ft | 209 kts | 343° |
| 2026-05-07 18:06 | 6.86071 | -73.08660 | 8329 ft | 208 kts | 343° |
| 2026-05-07 18:07 | 6.87441 | -73.09129 | 8088 ft | 210 kts | 343° |
| 2026-05-07 18:07 | 6.88828 | -73.09575 | 7975 ft | 204 kts | 345° |
| 2026-05-07 18:07 | 6.90187 | -73.10009 | 8052 ft | 208 kts | 344° |
| 2026-05-07 18:07 | 6.91561 | -73.10498 | 8031 ft | 210 kts | 342° |
| 2026-05-07 18:08 | 6.92933 | -73.11011 | 7810 ft | 211 kts | 341° |
| 2026-05-07 18:08 | 6.94278 | -73.11520 | 7555 ft | 204 kts | 341° |
| 2026-05-07 18:08 | 6.95592 | -73.12021 | 7225 ft | 199 kts | 342° |
| 2026-05-07 18:08 | 6.96858 | -73.12495 | 6959 ft | 191 kts | 341° |
| 2026-05-07 18:09 | 6.98087 | -73.12967 | 6710 ft | 184 kts | 342° |
| 2026-05-07 18:09 | 6.99236 | -73.13397 | 6445 ft | 166 kts | 341° |
| 2026-05-07 18:09 | 7.00260 | -73.13788 | 6261 ft | 159 kts | 342° |
| 2026-05-07 18:09 | 7.01303 | -73.14183 | 6035 ft | 157 kts | 341° |
| 2026-05-07 18:10 | 7.02311 | -73.14564 | 5837 ft | 156 kts | 343° |
| 2026-05-07 18:10 | 7.03323 | -73.14950 | 5613 ft | 156 kts | 342° |
| 2026-05-07 18:10 | 7.04346 | -73.15333 | 5416 ft | 157 kts | 342° |
| 2026-05-07 18:10 | 7.05350 | -73.15715 | 5205 ft | 152 kts | 342° |
| 2026-05-07 18:11 | 7.06355 | -73.16099 | 5000 ft | 155 kts | 341° |
| 2026-05-07 18:11 | 7.07018 | -73.16343 | 4868 ft | 153 kts | 342° |
| 2026-05-07 18:11 | 7.08355 | -73.16852 | 4593 ft | 153 kts | 341° |
| 2026-05-07 18:11 | 7.09345 | -73.17221 | 4395 ft | 154 kts | 341° |
| 2026-05-07 18:12 | 7.10320 | -73.17582 | 4202 ft | 149 kts | 345° |
| 2026-05-07 18:12 | 7.11279 | -73.17996 | 4112 ft | 151 kts | 341° |
| 2026-05-07 18:12 | 7.12284 | -73.18291 | 3933 ft | 145 kts | 339° |
| 2026-05-07 18:12 | 7.13122 | -73.18670 | 3911 ft | 105 kts | 338° |
| 2026-05-07 18:13 | 7.13589 | -73.18940 | 3923 ft | 0 kts | 247° |
| 2026-05-07 18:14 | 7.13591 | -73.18937 | 3923 ft | 0 kts | 259° |
| 2026-05-07 18:15 | 7.13589 | -73.18939 | 3921 ft | 1 kts | 250° |
| 2026-05-07 18:15 | 7.13593 | -73.18923 | 3921 ft | 3 kts | 212° |
| 2026-05-07 18:15 | 7.13609 | -73.18920 | 3921 ft | 0 kts | 127° |
| 2026-05-07 18:17 | 7.13609 | -73.18918 | 3920 ft | 1 kts | 117° |
| 2026-05-07 18:17 | 7.13610 | -73.18909 | 3920 ft | 0 kts | 80° |
| 2026-05-07 18:17 | 7.13619 | -73.18879 | 3920 ft | 2 kts | 70° |
| 2026-05-07 18:18 | 7.13625 | -73.18856 | 3921 ft | 13 kts | 84° |
| 2026-05-07 18:18 | 7.13537 | -73.18808 | 3922 ft | 22 kts | 171° |
| 2026-05-07 18:18 | 7.13419 | -73.18755 | 3919 ft | 20 kts | 167° |
| 2026-05-07 18:18 | 7.13278 | -73.18706 | 3914 ft | 24 kts | 151° |
| 2026-05-07 18:19 | 7.13182 | -73.18571 | 3907 ft | 25 kts | 133° |
| 2026-05-07 18:19 | 7.13053 | -73.18518 | 3904 ft | 20 kts | 159° |
| 2026-05-07 18:19 | 7.12923 | -73.18466 | 3900 ft | 14 kts | 158° |
| 2026-05-07 18:19 | 7.12865 | -73.18408 | 3899 ft | 14 kts | 140° |
| 2026-05-07 18:20 | 7.12785 | -73.18342 | 3898 ft | 10 kts | 141° |
| 2026-05-07 18:20 | 7.12729 | -73.18299 | 3893 ft | 8 kts | 139° |
| 2026-05-07 18:20 | 7.12706 | -73.18276 | 3894 ft | 2 kts | 131° |
| 2026-05-07 18:20 | 7.12694 | -73.18260 | 3895 ft | 7 kts | 125° |
| 2026-05-07 18:21 | 7.12690 | -73.18186 | 3891 ft | 8 kts | 49° |
| 2026-05-07 18:21 | 7.12695 | -73.18179 | 3891 ft | 2 kts | 55° |
| 2026-05-07 18:21 | 7.12705 | -73.18156 | 3893 ft | 5 kts | 71° |
| 2026-05-07 18:21 | 7.12731 | -73.18142 | 3895 ft | 0 kts | 358° |
| 2026-05-07 18:31 | 7.12728 | -73.18142 | 3895 ft | 0 kts | 358° |
| 2026-05-07 18:31 | 7.12710 | -73.18141 | 3894 ft | 1 kts | 358° |
| 2026-05-07 18:31 | 7.12711 | -73.18141 | 3895 ft | 0 kts | 1° |
| 2026-05-07 18:32 | 7.12696 | -73.18141 | 3892 ft | 1 kts | 359° |
| 2026-05-07 18:32 | 7.12698 | -73.18142 | 3894 ft | 1 kts | 359° |
| 2026-05-07 18:32 | 7.12695 | -73.18141 | 3892 ft | 10 kts | 5° |
| 2026-05-07 18:33 | 7.12669 | -73.18163 | 3892 ft | 3 kts | 48° |
| 2026-05-07 18:33 | 7.12672 | -73.18168 | 3892 ft | 0 kts | 5° |
| 2026-05-07 18:33 | 7.12678 | -73.18167 | 3892 ft | 1 kts | 3° |
| 2026-05-07 18:33 | 7.12686 | -73.18169 | 3890 ft | 2 kts | 346° |
| 2026-05-07 18:34 | 7.12685 | -73.18169 | 3890 ft | 2 kts | 349° |
| 2026-05-07 18:34 | 7.12702 | -73.18157 | 3893 ft | 0 kts | 27° |
| 2026-05-07 18:34 | 7.12714 | -73.18153 | 3891 ft | 0 kts | 13° |
| 2026-05-07 18:34 | 7.12716 | -73.18149 | 3891 ft | 0 kts | 11° |
| 2026-05-07 18:35 | 7.12717 | -73.18153 | 3892 ft | 0 kts | 8° |
| 2026-05-07 18:35 | 7.12716 | -73.18150 | 3891 ft | 0 kts | 11° |